Time;durP1;ratioP1;P1;durP2;ratioP2;P2;SDS_P1;SDS_P2;PMS_P1;PMS_P2;Temp;Humidity;BMP_temperature;BMP_pressure;BME280_temperature;BME280_humidity;BME280_pressure;Samples;Min_cycle;Max_cycle;Signal;HPM_P1;HPM_P2
2023/08/13 00:02:04;;;;;;;19.50;11.05;;;;;;;19.36;100.00;97675.88;5091543;28;20459;-71
2023/08/13 00:04:31;;;;;;;21.60;11.32;;;;;;;19.34;100.00;97681.53;5073551;28;21015;-71
2023/08/13 00:06:59;;;;;;;21.50;11.60;;;;;;;19.31;100.00;97676.00;5092441;28;20794;-71
2023/08/13 00:09:26;;;;;;;23.98;12.30;;;;;;;19.28;100.00;97673.91;5091415;28;20394;-71
2023/08/13 00:11:53;;;;;;;24.88;13.25;;;;;;;19.26;100.00;97666.13;5091473;28;20748;-71
2023/08/13 00:14:19;;;;;;;22.88;12.98;;;;;;;19.27;100.00;97665.03;5091514;28;20394;-71
2023/08/13 00:16:47;;;;;;;20.35;12.32;;;;;;;19.27;100.00;97659.69;5091371;28;20434;-71
2023/08/13 00:19:13;;;;;;;26.13;13.47;;;;;;;19.26;100.00;97668.81;5091197;28;20455;-71
2023/08/13 00:21:39;;;;;;;21.15;11.75;;;;;;;19.23;100.00;97666.75;5090959;28;20394;-71
2023/08/13 00:24:07;;;;;;;23.00;12.05;;;;;;;19.21;100.00;97665.44;5091527;28;20398;-71
2023/08/13 00:26:36;;;;;;;26.40;13.90;;;;;;;19.19;100.00;97670.31;5091175;28;20414;-71
2023/08/13 00:29:03;;;;;;;25.52;14.50;;;;;;;19.18;100.00;97658.00;5091164;28;20493;-71
2023/08/13 00:31:29;;;;;;;22.42;13.77;;;;;;;19.18;100.00;97660.66;5091080;28;20405;-71
2023/08/13 00:33:55;;;;;;;24.00;13.27;;;;;;;19.17;100.00;97661.78;5073048;28;20895;-71
2023/08/13 00:36:22;;;;;;;22.23;12.35;;;;;;;19.15;100.00;97664.78;5091186;28;20401;-71
2023/08/13 00:38:48;;;;;;;21.67;12.05;;;;;;;19.15;100.00;97664.78;5091067;28;20406;-71
2023/08/13 00:41:15;;;;;;;19.00;11.67;;;;;;;19.15;100.00;97678.19;5090953;28;20406;-71
2023/08/13 00:43:42;;;;;;;21.00;11.43;;;;;;;19.13;100.00;97666.16;5090811;28;20406;-71
2023/08/13 00:46:08;;;;;;;20.57;11.57;;;;;;;19.12;100.00;97670.72;5091031;28;20482;-71
2023/08/13 00:48:38;;;;;;;18.23;11.10;;;;;;;19.10;100.00;97678.25;5090647;28;20906;-71
2023/08/13 00:51:06;;;;;;;19.53;11.63;;;;;;;19.09;100.00;97678.59;5090876;28;20382;-71
2023/08/13 00:53:43;;;;;;;19.50;11.23;;;;;;;19.07;100.00;97678.09;5090809;28;20891;-71
2023/08/13 00:56:09;;;;;;;24.02;12.15;;;;;;;19.05;100.00;97673.00;5090348;28;20402;-71
2023/08/13 00:58:36;;;;;;;19.95;10.73;;;;;;;19.03;100.00;97672.50;5089912;28;20429;-71
2023/08/13 01:01:03;;;;;;;17.20;10.13;;;;;;;19.01;100.00;97672.03;5089804;28;20466;-71
2023/08/13 01:03:29;;;;;;;19.83;10.70;;;;;;;19.00;100.00;97673.13;5089915;28;20408;-71
2023/08/13 01:06:01;;;;;;;17.33;10.20;;;;;;;18.98;100.00;97669.94;5089790;28;20400;-71
2023/08/13 01:08:36;;;;;;;17.08;10.00;;;;;;;18.94;100.00;97672.41;5089713;28;20413;-71
2023/08/13 01:11:08;;;;;;;17.87;10.50;;;;;;;18.93;100.00;97672.72;5089792;28;20546;-71
2023/08/13 01:13:43;;;;;;;17.73;9.50;;;;;;;18.93;100.00;97672.72;5089738;28;20386;-71
2023/08/13 01:16:11;;;;;;;18.15;10.07;;;;;;;18.92;100.00;97655.81;5089634;28;20950;-71
2023/08/13 01:18:39;;;;;;;16.02;9.32;;;;;;;18.91;100.00;97664.97;5089394;28;20759;-71
2023/08/13 01:21:06;;;;;;;16.55;9.20;;;;;;;18.90;100.00;97668.75;5089472;28;20390;-71
2023/08/13 01:23:33;;;;;;;14.52;8.25;;;;;;;18.89;100.00;97660.97;5089561;28;20451;-71
2023/08/13 01:26:08;;;;;;;14.35;8.48;;;;;;;18.86;100.00;97667.75;5089450;28;20909;-71
2023/08/13 01:28:43;;;;;;;14.07;8.35;;;;;;;18.85;100.00;97671.53;5089450;28;20418;-71
2023/08/13 01:31:14;;;;;;;14.05;8.48;;;;;;;18.84;100.00;97669.13;5090457;28;20398;-71
2023/08/13 01:33:45;;;;;;;13.65;7.97;;;;;;;18.81;100.00;97664.34;5092761;28;20394;-71
2023/08/13 01:36:16;;;;;;;13.48;8.00;;;;;;;18.80;100.00;97668.13;5093190;28;20952;-71
2023/08/13 01:38:45;;;;;;;17.33;8.88;;;;;;;18.78;100.00;97664.97;5092902;28;20452;-71
2023/08/13 01:41:11;;;;;;;14.80;8.70;;;;;;;18.77;100.00;97660.69;5092757;28;20755;-71
2023/08/13 01:43:37;;;;;;;14.63;9.17;;;;;;;18.74;100.00;97655.91;5092878;28;20401;-71
2023/08/13 01:46:04;;;;;;;15.25;9.32;;;;;;;18.75;100.00;97652.13;5093117;28;20382;-71
2023/08/13 01:48:30;;;;;;;14.00;8.57;;;;;;;18.74;100.00;97664.75;5092696;28;20413;-72
2023/08/13 01:50:56;;;;;;;14.73;8.33;;;;;;;18.73;100.00;97665.84;5092649;28;20527;-71
2023/08/13 01:53:22;;;;;;;12.85;7.97;;;;;;;18.71;100.00;97662.69;5092795;28;20447;-71
2023/08/13 01:55:52;;;;;;;18.37;9.40;;;;;;;18.72;100.00;97668.84;5036846;22;1751792;-71
2023/08/13 01:58:18;;;;;;;16.70;9.25;;;;;;;18.71;100.00;97672.59;5053956;28;20405;-71
2023/08/13 02:00:44;;;;;;;16.63;9.43;;;;;;;18.69;100.00;97664.84;5054188;28;20416;-72
2023/08/13 02:03:10;;;;;;;17.25;9.02;;;;;;;18.68;100.00;97671.31;5040763;28;20403;-71
2023/08/13 02:05:37;;;;;;;16.60;9.02;;;;;;;18.66;100.00;97662.75;5042717;28;20406;-72
2023/08/13 02:08:03;;;;;;;20.48;10.10;;;;;;;18.66;100.00;97668.13;5034109;28;20506;-72
2023/08/13 02:10:29;;;;;;;16.58;9.80;;;;;;;18.68;100.00;97679.34;5032781;28;20823;-72
2023/08/13 02:12:59;;;;;;;14.67;9.03;;;;;;;18.70;100.00;97673.69;5042127;28;20403;-72
2023/08/13 02:15:25;;;;;;;16.55;9.20;;;;;;;18.71;100.00;97669.91;5042520;28;20414;-72
2023/08/13 02:17:51;;;;;;;13.00;8.57;;;;;;;18.72;100.00;97676.88;5044659;28;20459;-72
2023/08/13 02:20:17;;;;;;;16.88;8.93;;;;;;;18.72;100.00;97679.56;5039823;28;20399;-72
2023/08/13 02:22:44;;;;;;;14.52;8.40;;;;;;;18.73;100.00;97679.25;5041816;28;20401;-72
2023/08/13 02:25:10;;;;;;;15.32;8.65;;;;;;;18.74;100.00;97670.09;5033917;28;20410;-72
2023/08/13 02:27:36;;;;;;;13.00;8.18;;;;;;;18.76;100.00;97667.13;5042125;28;20944;-72
2023/08/13 02:30:06;;;;;;;14.55;8.07;;;;;;;18.77;100.00;97668.72;5045943;28;20471;-72
2023/08/13 02:32:32;;;;;;;13.68;7.50;;;;;;;18.78;100.00;97667.66;5037672;28;20395;-72
2023/08/13 02:34:58;;;;;;;12.60;7.82;;;;;;;18.78;100.00;97668.44;5040814;28;20501;-72
2023/08/13 02:37:24;;;;;;;15.23;8.60;;;;;;;18.80;100.00;97663.56;5034377;28;20403;-72
2023/08/13 02:39:50;;;;;;;20.35;10.43;;;;;;;18.82;100.00;97663.25;5042328;28;20485;-71
2023/08/13 02:42:17;;;;;;;25.15;11.88;;;;;;;18.83;100.00;97668.34;5042479;28;20896;-71
2023/08/13 02:44:43;;;;;;;19.90;10.75;;;;;;;18.85;100.00;97668.03;5033957;28;20435;-71
2023/08/13 02:47:10;;;;;;;23.80;11.83;;;;;;;18.88;100.00;97662.88;5047781;28;20433;-71
2023/08/13 02:49:37;;;;;;;22.20;11.77;;;;;;;18.91;100.00;97661.47;5054142;28;20401;-71
2023/08/13 02:52:03;;;;;;;24.20;12.83;;;;;;;18.93;100.00;97651.25;5034365;28;20410;-71
2023/08/13 02:54:30;;;;;;;26.25;13.30;;;;;;;18.95;100.00;97652.53;5034661;28;20885;-71
2023/08/13 02:56:56;;;;;;;24.98;12.90;;;;;;;19.00;100.00;97661.59;5037762;28;20405;-71
2023/08/13 02:59:22;;;;;;;23.70;12.63;;;;;;;19.00;100.00;97656.22;5048191;28;20498;-71
2023/08/13 03:01:48;;;;;;;22.15;11.98;;;;;;;19.00;100.00;97654.34;5034937;28;20498;-71
2023/08/13 03:04:16;;;;;;;22.85;12.13;;;;;;;19.00;100.00;97645.50;5043444;28;20407;-71
2023/08/13 03:06:42;;;;;;;24.10;11.77;;;;;;;18.99;100.00;97638.53;5042890;28;20407;-71
2023/08/13 03:09:18;;;;;;;23.38;11.73;;;;;;;19.00;100.00;97637.44;5047763;28;20409;-71
2023/08/13 03:11:44;;;;;;;17.88;11.38;;;;;;;19.01;100.00;97644.41;5055102;28;20398;-71
2023/08/13 03:14:10;;;;;;;25.67;12.83;;;;;;;19.02;100.00;97652.13;5055271;28;20849;-71
2023/08/13 03:16:36;;;;;;;21.45;11.95;;;;;;;19.04;100.00;97647.28;5052998;28;20401;-71
2023/08/13 03:19:02;;;;;;;23.70;11.80;;;;;;;19.04;100.00;97641.09;5038487;28;20435;-71
2023/08/13 03:21:30;;;;;;;21.75;12.05;;;;;;;19.04;100.00;97641.91;5054311;28;20401;-71
2023/08/13 03:23:56;;;;;;;21.08;10.88;;;;;;;19.04;100.00;97646.47;5054411;28;20778;-71
2023/08/13 03:26:22;;;;;;;21.42;11.35;;;;;;;19.05;100.00;97638.13;5054688;28;20438;-71
2023/08/13 03:28:48;;;;;;;19.10;10.60;;;;;;;19.07;100.00;97641.31;5053010;28;20410;-71
2023/08/13 03:31:14;;;;;;;25.02;11.88;;;;;;;19.08;100.00;97632.19;5054417;28;20412;-71
2023/08/13 03:33:41;;;;;;;17.67;10.27;;;;;;;19.09;100.00;97632.97;5054362;28;20827;-71
2023/08/13 03:36:07;;;;;;;22.55;12.15;;;;;;;19.09;100.00;97627.59;5054375;28;20420;-71
2023/08/13 03:38:35;;;;;;;27.83;13.82;;;;;;;19.07;100.00;97646.69;5053792;28;20428;-71
2023/08/13 03:41:02;;;;;;;23.20;12.35;;;;;;;19.07;100.00;97641.31;5054165;28;20409;-71
2023/08/13 03:43:28;;;;;;;23.13;12.20;;;;;;;19.06;100.00;97642.41;5046587;28;20777;-71
2023/08/13 03:45:54;;;;;;;20.52;11.27;;;;;;;19.05;100.00;97630.09;5036352;28;20401;-71
2023/08/13 03:48:20;;;;;;;19.55;10.32;;;;;;;19.03;100.00;97636.81;5045153;28;20834;-71
2023/08/13 03:50:46;;;;;;;17.60;9.70;;;;;;;19.01;100.00;97633.66;5044858;28;20543;-71
2023/08/13 03:53:13;;;;;;;17.00;9.32;;;;;;;19.00;100.00;97632.88;5048193;28;20406;-71
2023/08/13 03:55:40;;;;;;;14.23;8.23;;;;;;;19.00;100.00;97629.41;5032716;28;20413;-71
2023/08/13 03:58:07;;;;;;;15.80;8.77;;;;;;;19.00;100.00;97637.44;5041303;28;20734;-71
2023/08/13 04:00:33;;;;;;;12.68;8.13;;;;;;;18.98;100.00;97637.75;5041801;28;20407;-71
2023/08/13 04:03:00;;;;;;;13.15;8.00;;;;;;;18.98;100.00;97632.38;5041353;28;20399;-72
2023/08/13 04:05:26;;;;;;;11.88;7.43;;;;;;;18.95;100.00;97633.75;5033162;28;20403;-71
2023/08/13 04:07:52;;;;;;;13.47;7.70;;;;;;;18.93;100.00;97640.53;5031507;28;20433;-72
2023/08/13 04:10:18;;;;;;;13.45;7.60;;;;;;;18.94;100.00;97644.81;5032426;28;20399;-71
2023/08/13 04:12:46;;;;;;;15.18;8.40;;;;;;;18.91;100.00;97646.19;5034062;28;20441;-72
2023/08/13 04:15:12;;;;;;;14.45;8.10;;;;;;;18.89;100.00;97652.94;5047569;28;20395;-72
2023/08/13 04:17:38;;;;;;;13.13;7.93;;;;;;;18.87;100.00;97644.38;5032397;28;20822;-72
2023/08/13 04:20:06;;;;;;;12.17;7.33;;;;;;;18.87;100.00;97637.13;5032070;28;20407;-72
2023/08/13 04:22:32;;;;;;;13.32;7.60;;;;;;;18.88;100.00;97637.94;5031739;28;20493;-72
2023/08/13 04:24:58;;;;;;;14.13;7.95;;;;;;;18.91;100.00;97648.06;5030338;28;20411;-71
2023/08/13 04:27:24;;;;;;;13.93;7.63;;;;;;;18.91;100.00;97651.56;5030386;28;20434;-71
2023/08/13 04:29:52;;;;;;;18.15;9.18;;;;;;;18.92;100.00;97647.78;5031666;28;20435;-72
2023/08/13 04:32:18;;;;;;;17.95;8.57;;;;;;;18.91;100.00;97648.88;5037705;28;20405;-72
2023/08/13 04:34:44;;;;;;;15.07;8.93;;;;;;;18.92;100.00;97647.78;5041718;28;20430;-72
2023/08/13 04:37:11;;;;;;;18.23;9.30;;;;;;;18.93;100.00;97643.22;5031380;28;20399;-72
2023/08/13 04:39:37;;;;;;;14.77;9.13;;;;;;;18.92;100.00;97634.38;5031125;28;20893;-72
2023/08/13 04:42:03;;;;;;;12.50;8.38;;;;;;;18.94;100.00;97634.84;5031351;28;20399;-72
2023/08/13 04:44:29;;;;;;;15.05;8.45;;;;;;;18.97;100.00;97629.97;5039600;28;20418;-72
2023/08/13 04:46:57;;;;;;;14.70;8.40;;;;;;;18.99;100.00;97631.28;5031021;28;20777;-72
2023/08/13 04:49:23;;;;;;;12.70;7.40;;;;;;;19.03;100.00;97645.69;5039096;28;20409;-72
2023/08/13 04:51:49;;;;;;;19.52;10.18;;;;;;;19.05;100.00;97656.13;5030854;28;20751;-72
2023/08/13 04:54:15;;;;;;;15.73;9.43;;;;;;;19.04;100.00;97666.06;5031051;28;20465;-72
2023/08/13 04:56:42;;;;;;;19.23;9.98;;;;;;;19.06;100.00;97665.75;5030811;28;20435;-72
2023/08/13 04:59:08;;;;;;;16.23;9.55;;;;;;;19.05;100.00;97674.91;5030840;28;20473;-72
2023/08/13 05:01:34;;;;;;;17.83;9.80;;;;;;;19.04;100.00;97662.56;5038876;28;20491;-72
2023/08/13 05:04:02;;;;;;;16.02;8.50;;;;;;;19.03;100.00;97663.66;5039204;28;20896;-72
2023/08/13 05:06:28;;;;;;;21.92;10.32;;;;;;;19.00;100.00;97662.38;5032224;28;20411;-71
2023/08/13 05:08:54;;;;;;;18.83;9.35;;;;;;;18.94;100.00;97658.22;5035808;28;20425;-71
2023/08/13 05:11:20;;;;;;;19.20;9.57;;;;;;;18.91;100.00;97658.81;5055268;28;20420;-71
2023/08/13 05:13:47;;;;;;;18.75;9.23;;;;;;;18.89;100.00;97658.28;5055155;28;20405;-71
2023/08/13 05:16:13;;;;;;;17.63;9.38;;;;;;;18.90;100.00;97660.69;5055618;28;20409;-71
2023/08/13 05:18:39;;;;;;;17.50;9.37;;;;;;;18.91;100.00;97659.59;5046520;28;20395;-71
2023/08/13 05:21:07;;;;;;;18.42;9.13;;;;;;;18.91;100.00;97661.47;5042846;28;20411;-71
2023/08/13 05:23:33;;;;;;;17.00;9.40;;;;;;;18.93;100.00;97662.78;5034610;28;20427;-71
2023/08/13 05:25:59;;;;;;;21.60;11.18;;;;;;;18.94;100.00;97663.59;5033845;28;20410;-71
2023/08/13 05:28:26;;;;;;;21.13;10.90;;;;;;;18.93;100.00;97659.31;5042833;28;20419;-71
2023/08/13 05:30:52;;;;;;;19.52;10.73;;;;;;;18.93;100.00;97675.41;5034081;28;20788;-71
2023/08/13 05:33:18;;;;;;;21.60;10.85;;;;;;;18.92;100.00;97663.88;5033623;28;20403;-71
2023/08/13 05:35:44;;;;;;;20.42;11.38;;;;;;;18.90;100.00;97657.22;5034137;28;20407;-71
2023/08/13 05:38:12;;;;;;;23.42;11.82;;;;;;;18.88;100.00;97652.13;5044611;28;20431;-71
2023/08/13 05:40:38;;;;;;;25.48;11.90;;;;;;;18.89;100.00;97658.28;5053550;28;20492;-72
2023/08/13 05:43:04;;;;;;;28.10;13.07;;;;;;;18.88;100.00;97657.50;5045598;28;20468;-71
2023/08/13 05:45:30;;;;;;;23.90;12.50;;;;;;;18.88;100.00;97660.19;5052906;28;20401;-71
2023/08/13 05:47:57;;;;;;;22.85;12.15;;;;;;;18.88;100.00;97657.50;5052746;28;20449;-71
2023/08/13 05:50:24;;;;;;;23.53;12.43;;;;;;;18.91;100.00;97674.91;5053909;28;20752;-71
2023/08/13 05:52:50;;;;;;;24.60;12.60;;;;;;;18.95;100.00;97671.31;5053118;28;20407;-71
2023/08/13 05:55:18;;;;;;;23.27;11.55;;;;;;;18.99;100.00;97668.03;5052794;28;20443;-71
2023/08/13 05:57:44;;;;;;;22.30;11.57;;;;;;;19.04;100.00;97666.06;5052930;28;20398;-71
2023/08/13 06:00:11;;;;;;;19.52;10.65;;;;;;;19.10;100.00;97669.41;5045214;28;20409;-71
2023/08/13 06:02:38;;;;;;;19.73;10.18;;;;;;;19.12;100.00;97660.00;5036604;28;20478;-71
2023/08/13 06:05:06;;;;;;;19.70;9.85;;;;;;;19.16;100.00;97661.00;5045376;28;20439;-71
2023/08/13 06:07:33;;;;;;;19.20;10.15;;;;;;;19.20;100.00;97669.22;5036450;28;20415;-71
2023/08/13 06:09:59;;;;;;;16.20;9.43;;;;;;;19.21;100.00;97676.19;5044743;28;20433;-71
2023/08/13 06:12:27;;;;;;;24.40;11.90;;;;;;;19.19;100.00;97671.13;5053110;28;20429;-71
2023/08/13 06:14:53;;;;;;;18.30;9.77;;;;;;;19.19;100.00;97663.06;5052646;28;20455;-71
2023/08/13 06:17:19;;;;;;;20.02;10.40;;;;;;;19.22;100.00;97672.41;5052607;28;20408;-71
2023/08/13 06:19:46;;;;;;;20.37;10.40;;;;;;;19.19;100.00;97678.38;5047088;28;20513;-71
2023/08/13 06:22:12;;;;;;;17.70;10.07;;;;;;;19.19;100.00;97673.00;5042825;28;20430;-71
2023/08/13 06:24:38;;;;;;;17.58;9.18;;;;;;;19.20;100.00;97663.84;5036569;28;20449;-71
2023/08/13 06:27:04;;;;;;;16.30;9.25;;;;;;;19.24;100.00;97664.88;5036626;28;20449;-72
2023/08/13 06:29:32;;;;;;;21.05;11.27;;;;;;;19.26;100.00;97657.28;5036069;28;20465;-71
2023/08/13 06:31:58;;;;;;;29.48;13.27;;;;;;;19.25;100.00;97658.38;5039549;28;20409;-72
2023/08/13 06:34:25;;;;;;;27.38;13.02;;;;;;;19.25;100.00;97658.38;5049511;28;20434;-71
2023/08/13 06:36:51;;;;;;;24.65;12.55;;;;;;;19.26;100.00;97665.34;5036581;28;20406;-72
2023/08/13 06:39:18;;;;;;;24.65;12.25;;;;;;;19.26;100.00;97673.38;5036126;28;20438;-71
2023/08/13 06:41:44;;;;;;;21.75;12.05;;;;;;;19.25;100.00;97682.53;5044521;28;20426;-71
2023/08/13 06:44:18;;;;;;;23.58;11.88;;;;;;;19.25;100.00;97679.84;5040445;28;20432;-71
2023/08/13 06:46:45;;;;;;;21.70;11.10;;;;;;;19.26;100.00;97681.44;5055682;28;20416;-71
2023/08/13 06:49:11;;;;;;;20.00;10.85;;;;;;;19.26;100.00;97682.25;5055914;28;20436;-71
2023/08/13 06:51:38;;;;;;;20.52;10.77;;;;;;;19.30;100.00;97664.47;5046937;28;20870;-71
2023/08/13 06:54:04;;;;;;;17.33;9.82;;;;;;;19.34;100.00;97667.31;5045064;28;20742;-71
2023/08/13 06:56:31;;;;;;;22.27;9.70;;;;;;;19.36;100.00;97669.72;5034740;28;20750;-70
2023/08/13 06:58:57;;;;;;;15.85;8.82;;;;;;;19.36;100.00;97677.75;5045172;28;20431;-71
2023/08/13 07:01:23;;;;;;;16.37;9.03;;;;;;;19.35;100.00;97685.03;5036868;28;20420;-71
2023/08/13 07:03:51;;;;;;;14.75;8.40;;;;;;;19.35;100.00;97676.97;5047179;28;20401;-71
2023/08/13 07:06:17;;;;;;;16.95;8.73;;;;;;;19.36;100.00;97667.81;5050615;28;20414;-72
2023/08/13 07:08:43;;;;;;;17.35;9.27;;;;;;;19.42;100.00;97671.19;5036454;28;20426;-71
2023/08/13 07:11:10;;;;;;;20.15;9.50;;;;;;;19.47;100.00;97676.50;5041302;28;20405;-71
2023/08/13 07:13:36;;;;;;;17.15;9.35;;;;;;;19.49;100.00;97674.28;5056264;28;20398;-71
2023/08/13 07:16:03;;;;;;;17.55;8.57;;;;;;;19.54;100.00;97669.63;5055600;28;20409;-72
2023/08/13 07:18:29;;;;;;;17.08;8.18;;;;;;;19.60;100.00;97673.78;5047792;28;20411;-72
2023/08/13 07:20:57;;;;;;;14.45;8.55;;;;;;;19.69;100.00;97671.19;5043964;28;20769;-72
2023/08/13 07:23:23;;;;;;;17.55;9.20;;;;;;;19.75;100.00;97671.84;5035208;28;20407;-72
2023/08/13 07:25:49;;;;;;;17.10;9.20;;;;;;;19.78;100.00;97663.97;5043386;28;20490;-72
2023/08/13 07:28:15;;;;;;;17.20;8.97;;;;;;;19.83;100.00;97673.81;5041449;28;20475;-72
2023/08/13 07:30:43;;;;;;;17.13;9.00;;;;;;;19.87;100.00;97682.84;5042561;28;20420;-72
2023/08/13 07:33:09;;;;;;;14.38;8.82;;;;;;;19.89;100.00;97683.34;5054963;28;20394;-71
2023/08/13 07:35:35;;;;;;;18.33;9.30;;;;;;;19.89;100.00;97686.03;5054896;28;20408;-72
2023/08/13 07:38:03;;;;;;;16.00;8.60;;;;;;;19.88;100.00;97681.75;5053481;28;20409;-72
2023/08/13 07:40:29;;;;;;;14.68;8.00;;;;;;;19.91;100.00;97683.84;5054859;28;20407;-72
2023/08/13 07:42:59;;;;;;;13.32;7.28;;;;;;;19.95;100.00;97679.44;5043836;28;20403;-72
2023/08/13 07:45:25;;;;;;;17.70;9.43;;;;;;;19.92;100.00;97677.38;5034887;28;20465;-72
2023/08/13 07:47:51;;;;;;;14.35;8.00;;;;;;;19.98;100.00;97668.91;5045585;28;20417;-72
2023/08/13 07:50:18;;;;;;;14.68;7.30;;;;;;;20.10;100.00;97669.13;5041162;28;20763;-72
2023/08/13 07:52:44;;;;;;;16.88;7.50;;;;;;;20.22;100.00;97676.66;5036182;28;20429;-71
2023/08/13 07:55:12;;;;;;;17.52;8.30;;;;;;;20.30;100.00;97672.41;5042151;28;20438;-71
2023/08/13 07:57:38;;;;;;;11.23;7.00;;;;;;;20.35;100.00;97659.69;5034628;28;20498;-71
2023/08/13 08:00:08;;;;;;;11.07;6.43;;;;;;;20.43;100.00;97669.69;5043321;28;20469;-71
2023/08/13 08:02:34;;;;;;;9.63;5.75;;;;;;;20.51;100.00;97675.44;5043035;28;20817;-72
2023/08/13 08:05:00;;;;;;;9.70;5.75;;;;;;;20.50;100.00;97677.34;5055255;28;20405;-71
2023/08/13 08:07:27;;;;;;;11.10;5.97;;;;;;;20.50;100.00;97671.16;5054902;28;20409;-72
2023/08/13 08:09:53;;;;;;;10.33;5.67;;;;;;;20.51;100.00;97673.53;5054728;28;20420;-72
2023/08/13 08:12:21;;;;;;;9.57;5.22;;;;;;;20.51;100.00;97668.16;5054747;28;20887;-72
2023/08/13 08:14:47;;;;;;;7.82;4.70;;;;;;;20.54;100.00;97669.44;5053887;28;20404;-72
2023/08/13 08:17:13;;;;;;;7.30;4.60;;;;;;;20.58;100.00;97665.03;5053951;28;20406;-72
2023/08/13 08:19:39;;;;;;;7.22;4.70;;;;;;;20.64;100.00;97653.03;5052753;28;20409;-72
2023/08/13 08:22:05;;;;;;;6.43;4.25;;;;;;;20.72;100.00;97650.38;5033748;28;20405;-71
2023/08/13 08:24:33;;;;;;;8.68;4.15;;;;;;;20.83;100.00;97653.59;5034016;28;20407;-72
2023/08/13 08:26:59;;;;;;;6.13;4.03;;;;;;;20.90;100.00;97656.63;5041230;28;20797;-72
2023/08/13 08:29:27;;;;;;;8.60;5.30;;;;;;;20.89;100.00;97665.81;5033702;28;20407;-71
2023/08/13 08:31:53;;;;;;;8.55;4.70;;;;;;;20.94;100.00;97662.97;5032601;28;20457;-72
2023/08/13 08:34:19;;;;;;;7.55;4.90;;;;;;;20.92;100.00;97656.31;5031911;28;20404;-72
2023/08/13 08:36:45;;;;;;;9.27;5.43;;;;;;;20.87;100.00;97657.25;5031711;28;20415;-72
2023/08/13 08:39:12;;;;;;;9.82;5.70;;;;;;;20.82;100.00;97658.16;5031649;28;20485;-72
2023/08/13 08:41:45;;;;;;;10.80;5.68;;;;;;;20.82;100.00;97652.03;5039902;28;20407;-72
2023/08/13 08:44:18;;;;;;;8.05;5.00;;;;;;;20.86;100.00;97647.59;5043762;28;20902;-72
2023/08/13 08:46:47;;;;;;;9.10;5.60;;;;;;;20.96;100.00;97655.41;5034336;28;20960;-72
2023/08/13 08:49:16;;;;;;;8.35;5.10;;;;;;;21.05;100.00;97653.50;5032060;28;20427;-72
2023/08/13 08:51:43;;;;;;;8.38;4.80;;;;;;;21.14;100.00;97650.84;5032405;28;20469;-72
2023/08/13 08:54:09;;;;;;;8.38;5.00;;;;;;;21.20;100.00;97649.66;5032650;28;20394;-72
2023/08/13 08:56:35;;;;;;;8.52;4.93;;;;;;;21.22;100.00;97653.59;5032233;28;20476;-72
2023/08/13 08:59:01;;;;;;;7.10;5.03;;;;;;;21.28;100.00;97654.22;5037018;28;20397;-72
2023/08/13 09:01:28;;;;;;;7.03;5.20;;;;;;;21.31;100.00;97660.91;5043979;28;20399;-72
2023/08/13 09:03:55;;;;;;;8.90;5.40;;;;;;;21.27;100.00;97649.97;5050953;28;20759;-72
2023/08/13 09:06:21;;;;;;;5.65;4.05;;;;;;;21.26;100.00;97652.97;5045522;28;20872;-72
2023/08/13 09:08:48;;;;;;;6.50;4.30;;;;;;;21.20;100.00;97647.72;5033140;28;20426;-72
2023/08/13 09:11:14;;;;;;;8.25;5.10;;;;;;;21.15;100.00;97652.44;5038227;28;20411;-72
2023/08/13 09:13:47;;;;;;;11.68;5.88;;;;;;;21.10;100.00;97661.47;5042379;28;20409;-72
2023/08/13 09:16:14;;;;;;;8.10;5.32;;;;;;;21.11;100.00;97651.47;5034226;28;20403;-71
2023/08/13 09:18:40;;;;;;;6.72;4.75;;;;;;;21.21;100.00;97651.19;5049947;28;20401;-71
2023/08/13 09:21:09;;;;;;;5.03;4.15;;;;;;;21.38;100.00;97643.16;5053277;28;20398;-72
2023/08/13 09:23:39;;;;;;;5.75;3.60;;;;;;;21.53;100.00;97631.16;5053167;28;20421;-71
2023/08/13 09:26:06;;;;;;;5.30;3.70;;;;;;;21.61;100.00;97625.78;5052974;28;20917;-72
2023/08/13 09:28:32;;;;;;;7.18;4.13;;;;;;;21.65;100.00;97620.56;5036057;28;20419;-72
2023/08/13 09:30:58;;;;;;;5.53;4.47;;;;;;;21.74;100.00;97618.63;5032699;28;20541;-71
2023/08/13 09:33:26;;;;;;;4.93;3.95;;;;;;;21.90;100.00;97622.44;5048785;28;20460;-70
2023/08/13 09:35:52;;;;;;;5.25;3.83;;;;;;;22.04;100.00;97614.19;5035025;28;20425;-70
2023/08/13 09:38:19;;;;;;;5.93;3.22;;;;;;;22.19;100.00;97618.28;5048946;28;20397;-70
2023/08/13 09:40:47;;;;;;;4.68;3.13;;;;;;;22.26;100.00;97611.31;5052280;28;20409;-71
2023/08/13 09:43:16;;;;;;;3.33;3.03;;;;;;;22.32;100.00;97611.94;5034478;28;20824;-71
2023/08/13 09:45:46;;;;;;;4.78;3.42;;;;;;;22.23;100.00;97609.25;5042105;28;20433;-70
2023/08/13 09:48:17;;;;;;;4.25;3.42;;;;;;;22.19;100.00;97608.31;5032581;28;20423;-70
2023/08/13 09:50:48;;;;;;;3.45;3.15;;;;;;;22.31;100.00;97596.88;5034747;28;20445;-71
2023/08/13 09:53:20;;;;;;;3.50;2.95;;;;;;;22.51;100.00;97589.97;5041081;28;20433;-70
2023/08/13 09:55:50;;;;;;;2.78;2.50;;;;;;;22.75;100.00;97592.94;5045938;28;20409;-71
2023/08/13 09:58:19;;;;;;;2.63;2.40;;;;;;;23.04;100.00;97587.53;5037018;28;20403;-71
2023/08/13 10:00:45;;;;;;;3.58;3.20;;;;;;;;;;5036769;28;20816;-71
2023/08/13 10:03:12;;;;;;;3.83;2.75;;;;;;;23.39;100.00;97584.59;5042215;28;20486;-71
2023/08/13 10:05:41;;;;;;;3.90;3.37;;;;;;;23.49;100.00;97585.03;5049729;28;20406;-71
2023/08/13 10:08:08;;;;;;;4.38;3.35;;;;;;;23.48;100.00;97590.75;5047453;28;20430;-71
2023/08/13 10:10:35;;;;;;;3.30;3.00;;;;;;;23.47;100.00;97586.44;5038360;28;20545;-71
2023/08/13 10:13:04;;;;;;;3.30;3.00;;;;;;;23.41;100.00;97587.75;5049460;28;20389;-71
2023/08/13 10:15:31;;;;;;;4.70;3.17;;;;;;;23.32;100.00;97585.13;5057671;28;20397;-71
2023/08/13 10:17:59;;;;;;;3.47;2.87;;;;;;;23.29;100.00;97580.38;5038339;28;20398;-71
2023/08/13 10:20:25;;;;;;;9.73;4.50;;;;;;;23.08;100.00;97574.19;5038585;28;20427;-71
2023/08/13 10:22:53;;;;;;;4.32;3.33;;;;;;;23.01;100.00;97571.97;5054204;28;20914;-71
2023/08/13 10:25:28;;;;;;;3.58;2.90;;;;;;;23.21;100.00;97580.44;5037932;28;20486;-71
2023/08/13 10:27:55;;;;;;;2.67;2.47;;;;;;;23.65;100.00;97573.63;5049184;28;20413;-71
2023/08/13 10:30:23;;;;;;;3.05;2.50;;;;;;;23.81;100.00;97578.09;5051662;28;20391;-71
2023/08/13 10:32:51;;;;;;;3.00;2.47;;;;;;;23.86;100.00;97568.97;5039717;28;20437;-71
2023/08/13 10:35:22;;;;;;;2.70;2.50;;;;;;;23.89;100.00;97571.03;5057735;28;20402;-71
2023/08/13 10:37:51;;;;;;;3.97;2.60;;;;;;;23.86;100.00;97572.47;5041608;28;20941;-71
2023/08/13 10:40:18;;;;;;;3.22;2.45;;;;;;;23.85;100.00;97567.38;5056049;28;20881;-71
2023/08/13 10:42:54;;;;;;;3.07;2.43;;;;;;;23.81;100.00;97569.19;5055469;28;20497;-71
2023/08/13 10:45:23;;;;;;;2.65;2.42;;;;;;;23.74;100.00;97577.84;5045209;28;20430;-71
2023/08/13 10:47:52;;;;;;;3.63;2.78;;;;;;;23.56;100.00;97572.91;5038686;28;20797;-71
2023/08/13 10:50:25;;;;;;;6.38;3.90;;;;;;;23.31;100.00;97566.53;5057526;28;20416;-71
2023/08/13 10:52:59;;;;;;;7.90;4.50;;;;;;;23.10;100.00;97563.81;5038153;28;20406;-71
2023/08/13 10:55:27;;;;;;;6.82;4.15;;;;;;;22.97;100.00;97571.06;5036238;28;20426;-71
2023/08/13 10:57:54;;;;;;;4.78;3.72;;;;;;;22.95;100.00;97565.19;5054323;28;20394;-71
2023/08/13 11:00:24;;;;;;;4.90;3.20;;;;;;;23.00;100.00;97572.31;5040653;28;20457;-71
2023/08/13 11:02:51;;;;;;;4.00;3.47;;;;;;;23.10;100.00;97566.53;5035412;28;20464;-71
2023/08/13 11:05:18;;;;;;;3.50;3.20;;;;;;;23.23;100.00;97562.78;5035543;28;20411;-71
2023/08/13 11:07:44;;;;;;;4.07;3.07;;;;;;;23.30;100.00;97571.16;5043454;28;20828;-71
2023/08/13 11:10:16;;;;;;;4.32;3.40;;;;;;;23.36;100.00;97563.66;5039958;28;20748;-71
2023/08/13 11:12:44;;;;;;;3.40;3.10;;;;;;;23.42;100.00;97571.22;5044980;28;20510;-71
2023/08/13 11:15:10;;;;;;;3.60;3.03;;;;;;;23.53;100.00;97567.03;5043143;28;20407;-71
2023/08/13 11:17:38;;;;;;;3.67;2.60;;;;;;;23.74;100.00;97566.22;5034860;28;20403;-71